PHKO Airport (Ellison Onizuka Kona Intl At Keahole) Information

FAA: KOA - ICAO: PHKO

PHKO Airport Location

State Hawaii
County Hawaii
City Kailua/Kona
PHKO Airport is 6 miles northwest of Kailua/Kona, HI.
Latitude 19-44-19.5570N
Longitude 156-02-44.2730W
Elevation 47ft

PHKO Airport METARs

METAR PHKO 200353Z 17009KT 10SM SCT040 SCT055 27/18 A2999 RMK AO2 SLP155 T02670183
Altimeter 29.99"
Temperature 26.7°C (80.1°F)
Wind 170° at 9KT
Clouds scattered at 4,000ft scattered at 5,500ft
Visibility 10.0mi
Time observed: 2021-10-20T03:53:00Z

PHKO Airport Details

Status Operational
Activation January 1971
Ownership Public
Usage Public
Chart HAWAIIAN ISLANDS
ATC on-site Yes
Beacon schedule sunset-sunrise
Beacon color clear green

PHKO Airport Contacts

Owner HAWAII ST ARPTS DIV
Owner address HONOLULU INTL ARPT, HONOLULU, HI 96819
Owner phone 808-838-8600
Manager CHRISTOPHER S. TENORIO
Manager address PO BOX 501055, SAIPAN, MP 96950-1055
Manager phone (670) 483-2447

PHKO Airport (Ellison Onizuka Kona Intl At Keahole) Radio Frequencies

PHKO (Airport) Radio Frequencies

UNICOM N/A
Common traffic advisory frequency (CTAF) 120.3